createdAt,value
2017-12-06T00:01:03.446Z,18.33
2017-12-06T00:03:31.783Z,17.83
2017-12-06T00:06:00.128Z,18.27
2017-12-06T00:08:28.456Z,17.80
2017-12-06T00:10:56.819Z,19.03
2017-12-06T00:13:30.782Z,18.10
2017-12-06T00:16:00.247Z,19.43
2017-12-06T00:18:28.592Z,18.43
2017-12-06T00:20:56.932Z,18.03
2017-12-06T00:23:25.277Z,17.67
2017-12-06T00:25:53.616Z,17.60
2017-12-06T00:28:23.143Z,16.53
2017-12-06T00:30:51.499Z,15.53
2017-12-06T00:33:20.660Z,16.40
2017-12-06T00:35:49.246Z,15.33
2017-12-06T00:38:17.583Z,14.23
2017-12-06T00:40:45.926Z,14.63
2017-12-06T00:43:15.019Z,15.10
2017-12-06T00:45:44.241Z,15.03
2017-12-06T00:48:12.574Z,12.87
2017-12-06T00:50:40.905Z,13.67
2017-12-06T00:53:09.263Z,12.67
2017-12-06T00:55:37.607Z,13.63
2017-12-06T00:58:06.042Z,13.43
2017-12-06T01:00:34.509Z,13.67
2017-12-06T01:03:02.953Z,11.87
2017-12-06T01:05:31.311Z,12.90
2017-12-06T01:07:59.654Z,13.37
2017-12-06T01:10:28.048Z,13.33
2017-12-06T01:12:56.393Z,14.30
2017-12-06T01:15:25.544Z,14.93
2017-12-06T01:17:54.130Z,12.93
2017-12-06T01:20:22.467Z,13.47
2017-12-06T01:22:50.850Z,13.80
2017-12-06T01:25:19.248Z,13.83
2017-12-06T01:27:47.573Z,13.50
2017-12-06T01:30:16.008Z,13.53
2017-12-06T01:32:44.357Z,12.77
2017-12-06T01:35:13.505Z,13.20
2017-12-06T01:37:41.831Z,12.80
2017-12-06T01:40:10.943Z,12.87
2017-12-06T01:42:39.297Z,13.10
2017-12-06T01:45:08.399Z,13.10
2017-12-06T01:47:37.604Z,14.70
2017-12-06T01:50:06.024Z,14.63
2017-12-06T01:52:34.421Z,14.27
2017-12-06T01:55:02.772Z,15.60
2017-12-06T01:57:31.296Z,15.10
2017-12-06T02:00:00.431Z,15.57
2017-12-06T02:02:28.790Z,16.50
2017-12-06T02:04:57.892Z,16.70
2017-12-06T02:07:26.999Z,15.50
2017-12-06T02:09:55.330Z,16.70
2017-12-06T02:12:23.668Z,16.57
2017-12-06T02:14:52.148Z,16.23
2017-12-06T02:17:20.479Z,18.60
2017-12-06T02:19:48.926Z,18.30
2017-12-06T02:22:17.294Z,17.87
2017-12-06T02:24:45.791Z,18.77
2017-12-06T02:27:14.206Z,18.43
2017-12-06T02:29:42.940Z,19.50
2017-12-06T02:32:11.512Z,19.37
2017-12-06T02:34:40.620Z,19.00
2017-12-06T02:37:09.036Z,18.53
2017-12-06T02:39:49.477Z,17.93
2017-12-06T02:42:29.779Z,19.10
2017-12-06T02:45:10.155Z,18.87
2017-12-06T02:47:39.395Z,18.57
2017-12-06T02:50:07.720Z,19.83
2017-12-06T02:52:36.824Z,18.47
2017-12-06T02:55:06.047Z,20.57
2017-12-06T02:57:34.428Z,18.80
2017-12-06T03:00:02.752Z,19.93
2017-12-06T03:02:31.214Z,18.97
2017-12-06T03:04:59.558Z,18.43
2017-12-06T03:07:27.911Z,18.67
2017-12-06T03:09:57.025Z,18.57
2017-12-06T03:12:26.312Z,18.23
2017-12-06T03:14:54.619Z,20.33
2017-12-06T03:17:22.960Z,19.53
2017-12-06T03:19:51.303Z,19.57
2017-12-06T03:22:19.647Z,20.23
2017-12-06T03:24:48.054Z,19.00
2017-12-06T03:27:16.373Z,20.43
2017-12-06T03:29:44.717Z,20.10
2017-12-06T03:32:13.052Z,19.83
2017-12-06T03:34:42.175Z,20.10
2017-12-06T03:37:10.565Z,21.20
2017-12-06T03:39:38.931Z,19.97
2017-12-06T03:42:07.835Z,20.50
2017-12-06T03:44:36.200Z,19.73
2017-12-06T03:47:04.545Z,19.77
2017-12-06T03:49:32.915Z,19.53
2017-12-06T03:52:01.257Z,19.10
2017-12-06T03:54:29.631Z,19.00
2017-12-06T03:59:32.695Z,18.30
2017-12-06T04:02:01.122Z,18.47
2017-12-06T04:04:29.500Z,16.70
2017-12-06T04:06:57.855Z,16.57
2017-12-06T04:09:26.195Z,17.50
2017-12-06T04:11:54.671Z,17.43
2017-12-06T04:14:23.039Z,16.83
2017-12-06T04:16:51.385Z,15.83
2017-12-06T04:19:19.762Z,16.57
2017-12-06T04:21:48.141Z,16.43
2017-12-06T04:24:16.475Z,15.87
2017-12-06T04:26:45.634Z,14.90
2017-12-06T04:29:13.980Z,13.90
2017-12-06T04:31:42.357Z,14.60
2017-12-06T04:34:11.230Z,14.70
2017-12-06T04:36:40.324Z,14.50
2017-12-06T04:39:09.512Z,14.60
2017-12-06T04:41:38.582Z,13.83
2017-12-06T04:44:07.238Z,14.00
2017-12-06T04:46:35.577Z,13.53
2017-12-06T04:49:04.672Z,14.20
2017-12-06T04:51:33.794Z,13.83
2017-12-06T04:54:02.133Z,13.90
2017-12-06T04:56:30.580Z,14.27
2017-12-06T04:58:58.903Z,13.97
2017-12-06T05:01:27.547Z,14.50
2017-12-06T05:03:55.894Z,14.70
2017-12-06T05:06:24.978Z,15.07
2017-12-06T05:08:54.091Z,13.50
2017-12-06T05:11:22.423Z,14.43
2017-12-06T05:13:50.775Z,15.03
2017-12-06T05:16:19.118Z,14.47
2017-12-06T05:18:47.448Z,14.10
2017-12-06T05:21:15.793Z,14.93
2017-12-06T05:23:44.135Z,13.90
2017-12-06T05:26:13.273Z,13.37
2017-12-06T05:28:41.660Z,13.40
2017-12-06T05:31:09.983Z,13.30
2017-12-06T05:33:38.333Z,13.67
2017-12-06T05:36:06.720Z,13.53
2017-12-06T05:38:35.065Z,13.00
2017-12-06T05:41:03.440Z,13.93
2017-12-06T05:43:31.837Z,12.33
2017-12-06T05:46:00.184Z,12.63
2017-12-06T05:48:28.524Z,13.07
2017-12-06T05:50:56.968Z,13.27
2017-12-06T05:53:25.304Z,12.83
2017-12-06T05:55:54.399Z,14.30
2017-12-06T05:58:23.510Z,12.30
2017-12-06T06:00:51.849Z,12.87
2017-12-06T06:03:20.197Z,14.10
2017-12-06T06:05:48.535Z,13.43
2017-12-06T06:08:16.894Z,13.80
2017-12-06T06:10:45.416Z,13.47
2017-12-06T06:13:13.748Z,12.87
2017-12-06T06:15:42.082Z,14.70
2017-12-06T06:18:10.429Z,14.27
2017-12-06T06:20:38.832Z,14.80
2017-12-06T06:23:07.176Z,13.87
2017-12-06T06:25:35.508Z,13.93
2017-12-06T06:28:03.865Z,13.23
2017-12-06T06:30:32.201Z,13.63
2017-12-06T06:33:00.629Z,13.53
2017-12-06T06:35:28.958Z,13.60
2017-12-06T06:37:57.294Z,14.03
2017-12-06T06:40:25.669Z,13.43
2017-12-06T06:42:53.990Z,14.07
2017-12-06T06:45:22.439Z,13.50
2017-12-06T06:47:50.704Z,14.27
2017-12-06T06:50:19.084Z,13.63
2017-12-06T06:52:47.684Z,13.90
2017-12-06T06:55:16.019Z,13.63
2017-12-06T06:57:45.209Z,13.33
2017-12-06T07:00:14.317Z,13.80
2017-12-06T07:02:43.743Z,13.50
2017-12-06T07:05:12.088Z,13.50
2017-12-06T07:07:40.456Z,13.10
2017-12-06T07:10:08.823Z,13.77
2017-12-06T07:12:37.171Z,12.83
2017-12-06T07:15:05.645Z,12.83
2017-12-06T07:17:33.966Z,13.33
2017-12-06T07:20:02.291Z,13.07
2017-12-06T07:22:30.676Z,12.30
2017-12-06T07:24:59.060Z,12.57
2017-12-06T07:27:27.940Z,13.00
2017-12-06T07:29:56.284Z,13.33
2017-12-06T07:32:25.399Z,13.17
2017-12-06T07:34:53.928Z,12.80
2017-12-06T07:37:22.275Z,12.67
2017-12-06T07:39:50.624Z,13.60
2017-12-06T07:42:19.722Z,13.00
2017-12-06T07:44:48.847Z,13.67
2017-12-06T07:47:17.203Z,12.80
2017-12-06T07:49:46.300Z,13.30
2017-12-06T07:52:15.431Z,14.33
2017-12-06T07:54:43.789Z,13.73
2017-12-06T07:57:13.084Z,15.37
2017-12-06T07:59:42.203Z,13.60
2017-12-06T08:02:10.581Z,14.07
2017-12-06T08:04:38.928Z,14.43
2017-12-06T08:07:07.889Z,13.90
2017-12-06T08:09:36.239Z,13.90
2017-12-06T08:12:04.568Z,13.83
2017-12-06T08:14:33.137Z,13.60
2017-12-06T08:17:01.668Z,14.60
2017-12-06T08:19:30.008Z,14.33
2017-12-06T08:21:58.398Z,14.60
2017-12-06T08:24:26.790Z,13.83
2017-12-06T08:26:55.157Z,14.83
2017-12-06T08:29:23.533Z,14.80
2017-12-06T08:31:51.885Z,14.53
2017-12-06T08:34:20.276Z,13.67
2017-12-06T08:36:48.676Z,14.53
2017-12-06T08:39:17.815Z,15.00
2017-12-06T08:41:46.193Z,14.63
2017-12-06T08:44:14.563Z,14.67
2017-12-06T08:46:43.048Z,14.60
2017-12-06T08:49:11.469Z,15.57
2017-12-06T08:51:39.816Z,16.13
2017-12-06T08:54:08.163Z,14.67
2017-12-06T08:56:36.499Z,14.07
2017-12-06T08:59:04.863Z,14.37
2017-12-06T09:01:33.207Z,14.67
2017-12-06T09:04:01.548Z,15.20
2017-12-06T09:06:29.976Z,13.83
2017-12-06T09:08:58.411Z,14.43
2017-12-06T09:11:26.854Z,14.40
2017-12-06T09:13:55.261Z,15.10
2017-12-06T09:16:23.694Z,15.10
2017-12-06T09:18:52.033Z,13.93
2017-12-06T09:21:20.374Z,15.60
2017-12-06T09:23:48.857Z,14.07
2017-12-06T09:26:17.246Z,14.53
2017-12-06T09:28:45.709Z,14.23
2017-12-06T09:31:14.051Z,16.60
2017-12-06T09:33:43.147Z,15.57
2017-12-06T09:36:11.501Z,14.70
2017-12-06T09:38:39.856Z,16.77
2017-12-06T09:41:08.211Z,15.70
2017-12-06T09:43:36.648Z,15.77
2017-12-06T09:46:05.760Z,15.20
2017-12-06T09:48:34.889Z,16.53
2017-12-06T09:51:03.238Z,14.20
2017-12-06T09:53:32.362Z,16.27
2017-12-06T09:56:00.702Z,15.83
2017-12-06T09:58:29.800Z,15.90
2017-12-06T10:00:58.244Z,16.00
2017-12-06T10:03:26.594Z,15.37
2017-12-06T10:05:54.948Z,14.83
2017-12-06T10:08:24.055Z,16.50
2017-12-06T10:10:52.414Z,15.97
2017-12-06T10:13:21.624Z,16.10
2017-12-06T10:15:50.790Z,15.97
2017-12-06T10:18:19.111Z,15.33
2017-12-06T10:20:47.479Z,15.77
2017-12-06T10:23:15.863Z,14.33
2017-12-06T10:25:44.202Z,16.57
2017-12-06T10:28:12.548Z,15.87
2017-12-06T10:30:41.020Z,14.87
2017-12-06T10:33:09.364Z,15.67
2017-12-06T10:35:37.746Z,15.10
2017-12-06T10:38:06.850Z,16.07
2017-12-06T10:40:35.969Z,14.80
2017-12-06T10:43:04.320Z,15.07
2017-12-06T10:45:33.435Z,15.67
2017-12-06T10:48:01.814Z,15.40
2017-12-06T10:50:30.215Z,14.57
2017-12-06T10:52:58.778Z,14.27
2017-12-06T10:55:27.118Z,14.23
2017-12-06T10:57:55.477Z,14.27
2017-12-06T11:00:25.743Z,16.20
2017-12-06T11:02:54.094Z,15.80
2017-12-06T11:05:22.458Z,15.07
2017-12-06T11:07:50.795Z,15.03
2017-12-06T11:10:19.346Z,14.20
2017-12-06T11:12:47.725Z,14.47
2017-12-06T11:15:16.147Z,14.13
2017-12-06T11:17:44.516Z,14.57
2017-12-06T11:20:12.868Z,15.30
2017-12-06T11:22:42.001Z,14.87
2017-12-06T11:25:10.351Z,13.23
2017-12-06T11:27:39.481Z,14.03
2017-12-06T11:30:07.856Z,14.07
2017-12-06T11:32:36.193Z,13.07
2017-12-06T11:35:05.332Z,13.30
2017-12-06T11:37:33.697Z,13.67
2017-12-06T11:40:02.083Z,14.00
2017-12-06T11:42:30.451Z,14.60
2017-12-06T11:44:58.796Z,14.33
2017-12-06T11:47:27.147Z,14.37
2017-12-06T11:49:55.498Z,13.10
2017-12-06T11:52:23.831Z,14.17
2017-12-06T11:54:52.191Z,12.97
2017-12-06T11:57:20.541Z,13.73
2017-12-06T11:59:48.884Z,13.07
2017-12-06T12:02:18.060Z,13.27
2017-12-06T12:04:46.406Z,13.70
2017-12-06T12:07:15.084Z,12.63
2017-12-06T12:09:43.525Z,16.93
2017-12-06T12:12:12.647Z,13.00
2017-12-06T12:14:41.044Z,12.57
2017-12-06T12:17:09.419Z,13.23
2017-12-06T12:19:37.746Z,13.13
2017-12-06T12:22:06.088Z,12.67
2017-12-06T12:24:34.580Z,12.17
2017-12-06T12:27:02.911Z,12.40
2017-12-06T12:29:31.345Z,13.30
2017-12-06T12:31:59.730Z,12.43
2017-12-06T12:34:28.048Z,11.83
2017-12-06T12:36:56.444Z,11.07
2017-12-06T12:39:24.845Z,11.63
2017-12-06T12:41:54.213Z,11.13
2017-12-06T12:44:23.324Z,11.13
2017-12-06T12:46:51.664Z,11.30
2017-12-06T12:49:20.393Z,10.70
2017-12-06T12:51:48.717Z,10.63
2017-12-06T12:54:17.098Z,11.20
2017-12-06T12:56:45.432Z,9.93
2017-12-06T12:59:13.767Z,10.23
2017-12-06T13:01:42.401Z,10.17
2017-12-06T13:04:10.741Z,10.20
2017-12-06T13:06:39.123Z,8.17
2017-12-06T13:09:08.232Z,9.37
2017-12-06T13:11:36.564Z,8.70
2017-12-06T13:14:05.005Z,9.10
2017-12-06T13:16:33.548Z,8.57
2017-12-06T13:19:01.909Z,9.03
2017-12-06T13:21:30.244Z,9.10
2017-12-06T13:23:58.583Z,7.97
2017-12-06T13:26:27.700Z,8.17
2017-12-06T13:28:56.793Z,7.67
2017-12-06T13:31:26.030Z,8.07
2017-12-06T13:33:54.376Z,7.73
2017-12-06T13:36:22.784Z,6.90
2017-12-06T13:38:51.120Z,7.10
2017-12-06T13:41:20.228Z,6.30
2017-12-06T13:43:48.599Z,6.17
2017-12-06T13:46:17.748Z,6.50
2017-12-06T13:48:46.100Z,6.07
2017-12-06T13:51:14.433Z,5.47
2017-12-06T13:53:42.763Z,5.60
2017-12-06T13:56:11.124Z,4.90
2017-12-06T13:58:39.515Z,5.10
2017-12-06T14:01:07.861Z,5.00
2017-12-06T14:03:37.153Z,5.33
2017-12-06T14:06:05.550Z,4.30
2017-12-06T14:08:34.679Z,3.87
2017-12-06T14:11:03.140Z,4.30
2017-12-06T14:13:31.532Z,3.63
2017-12-06T14:15:59.922Z,3.60
2017-12-06T14:18:28.462Z,3.87
2017-12-06T14:20:56.819Z,3.90
2017-12-06T14:23:25.208Z,3.77
2017-12-06T14:25:53.564Z,3.80
2017-12-06T14:28:21.934Z,3.40
2017-12-06T14:30:50.249Z,3.97
2017-12-06T14:33:19.397Z,4.30
2017-12-06T14:35:47.778Z,3.40
2017-12-06T14:38:16.471Z,3.63
2017-12-06T14:40:44.891Z,4.10
2017-12-06T14:43:13.278Z,3.90
2017-12-06T14:45:41.690Z,4.00
2017-12-06T14:48:10.159Z,3.97
2017-12-06T14:50:38.896Z,4.40
2017-12-06T14:53:07.267Z,4.47
2017-12-06T14:55:35.603Z,4.70
2017-12-06T14:58:03.985Z,4.70
2017-12-06T15:00:32.339Z,4.67
2017-12-06T15:03:00.972Z,4.90
2017-12-06T15:05:29.306Z,5.23
2017-12-06T15:07:58.440Z,5.30
2017-12-06T15:10:26.812Z,5.10
2017-12-06T15:12:55.199Z,4.93
2017-12-06T15:15:23.552Z,5.30
2017-12-06T15:17:51.889Z,5.40
2017-12-06T15:20:20.245Z,5.77
2017-12-06T15:22:48.631Z,5.37
2017-12-06T15:25:17.029Z,5.70
2017-12-06T15:27:45.378Z,6.13
2017-12-06T15:30:13.749Z,6.20
2017-12-06T15:32:42.130Z,5.60
2017-12-06T15:35:10.584Z,5.67
2017-12-06T15:37:39.734Z,6.30
2017-12-06T15:40:08.161Z,6.33
2017-12-06T15:42:36.640Z,5.30
2017-12-06T15:45:05.772Z,6.17
2017-12-06T15:47:34.397Z,6.00
2017-12-06T15:50:02.734Z,5.93
2017-12-06T15:52:31.171Z,6.10
2017-12-06T15:54:59.567Z,6.57
2017-12-06T15:57:27.960Z,6.07
2017-12-06T15:59:56.411Z,6.57
2017-12-06T16:02:24.850Z,6.33
2017-12-06T16:04:53.203Z,6.27
2017-12-06T16:07:21.641Z,6.20
2017-12-06T16:09:49.991Z,6.53
2017-12-06T16:12:18.312Z,6.40
2017-12-06T16:14:46.721Z,6.83
2017-12-06T16:17:15.053Z,6.10
2017-12-06T16:19:43.398Z,5.70
2017-12-06T16:22:11.740Z,6.27
2017-12-06T16:24:40.072Z,6.60
2017-12-06T16:27:08.434Z,7.30
2017-12-06T16:29:36.753Z,6.13
2017-12-06T16:32:05.859Z,5.70
2017-12-06T16:34:35.030Z,6.50
2017-12-06T16:37:15.428Z,6.40
2017-12-06T16:39:44.550Z,6.27
2017-12-06T16:42:12.880Z,6.50
2017-12-06T16:44:41.214Z,7.43
2017-12-06T16:47:09.683Z,7.17
2017-12-06T16:49:38.054Z,6.20
2017-12-06T16:52:06.450Z,6.77
2017-12-06T16:54:34.793Z,6.43
2017-12-06T16:57:03.888Z,6.60
2017-12-06T16:59:32.241Z,6.53
2017-12-06T17:02:00.567Z,6.33
2017-12-06T17:04:29.001Z,6.67
2017-12-06T17:06:57.319Z,6.10
2017-12-06T17:09:25.710Z,6.30
2017-12-06T17:11:54.085Z,7.07
2017-12-06T17:14:22.426Z,7.27
2017-12-06T17:16:50.772Z,6.60
2017-12-06T17:19:19.117Z,6.63
2017-12-06T17:21:47.518Z,7.17
2017-12-06T17:24:15.885Z,6.40
2017-12-06T17:26:44.272Z,6.43
2017-12-06T17:29:24.472Z,6.20
2017-12-06T17:31:52.820Z,6.23
2017-12-06T17:34:21.162Z,5.97
2017-12-06T17:36:49.508Z,6.43
2017-12-06T17:39:17.863Z,6.03
2017-12-06T17:41:46.194Z,7.03
2017-12-06T17:44:14.714Z,6.50
2017-12-06T17:46:43.122Z,6.47
2017-12-06T17:49:11.531Z,6.47
2017-12-06T17:51:40.611Z,6.60
2017-12-06T17:54:08.967Z,7.00
2017-12-06T17:56:37.316Z,6.20
2017-12-06T17:59:05.689Z,6.33
2017-12-06T18:01:33.999Z,6.80
2017-12-06T18:04:02.447Z,6.87
2017-12-06T18:06:30.796Z,6.37
2017-12-06T18:08:59.215Z,6.77
2017-12-06T18:11:27.735Z,6.20
2017-12-06T18:13:56.169Z,6.53
2017-12-06T18:16:24.531Z,7.50
2017-12-06T18:18:52.927Z,6.40
2017-12-06T18:21:21.262Z,7.10
2017-12-06T18:23:49.614Z,7.30
2017-12-06T18:26:17.959Z,7.70
2017-12-06T18:28:46.530Z,7.10
2017-12-06T18:31:14.860Z,7.73
2017-12-06T18:33:43.192Z,7.43
2017-12-06T18:36:11.579Z,6.63
2017-12-06T18:38:39.903Z,7.53
2017-12-06T18:41:12.393Z,6.40
2017-12-06T18:43:40.726Z,7.23
2017-12-06T18:46:09.083Z,7.33
2017-12-06T18:48:37.432Z,7.60
2017-12-06T18:51:05.800Z,7.03
2017-12-06T18:53:34.161Z,7.67
2017-12-06T18:56:03.237Z,7.73
2017-12-06T18:58:32.272Z,7.93
2017-12-06T19:01:00.603Z,8.20
2017-12-06T19:03:28.938Z,7.97
2017-12-06T19:05:58.056Z,7.90
2017-12-06T19:08:26.444Z,8.07
2017-12-06T19:10:54.913Z,7.73
2017-12-06T19:13:24.044Z,7.97
2017-12-06T19:15:55.285Z,9.20
2017-12-06T19:18:26.563Z,8.23
2017-12-06T19:20:54.941Z,9.10
2017-12-06T19:23:24.222Z,8.40
2017-12-06T19:25:52.642Z,8.60
2017-12-06T19:28:20.933Z,9.27
2017-12-06T19:30:49.287Z,8.63
2017-12-06T19:33:17.613Z,8.40
2017-12-06T19:35:45.976Z,8.53
2017-12-06T19:38:14.475Z,8.43
2017-12-06T19:40:42.867Z,8.80
2017-12-06T19:43:11.419Z,9.40
2017-12-06T19:45:39.919Z,9.20
2017-12-06T19:48:08.367Z,9.57
2017-12-06T19:50:37.974Z,10.73
2017-12-06T19:53:07.084Z,9.77
2017-12-06T19:55:36.350Z,10.47
2017-12-06T19:58:05.544Z,9.80
2017-12-06T20:00:33.936Z,9.83
2017-12-06T20:03:02.269Z,10.30
2017-12-06T20:05:30.647Z,10.30
2017-12-06T20:07:59.037Z,10.17
2017-12-06T20:10:27.399Z,10.93
2017-12-06T20:12:55.752Z,10.80
2017-12-06T20:15:24.941Z,11.00
2017-12-06T20:17:53.290Z,11.23
2017-12-06T20:20:21.629Z,11.27
2017-12-06T20:22:49.976Z,10.13
2017-12-06T20:25:19.272Z,10.73
2017-12-06T20:27:48.583Z,10.43
2017-12-06T20:30:17.316Z,10.80
2017-12-06T20:32:46.546Z,10.13
2017-12-06T20:35:14.902Z,10.27
2017-12-06T20:37:43.548Z,10.67
2017-12-06T20:40:12.737Z,10.47
2017-12-06T20:42:42.099Z,10.27
2017-12-06T20:45:10.445Z,10.30
2017-12-06T20:47:39.832Z,10.03
2017-12-06T20:50:08.976Z,10.00
2017-12-06T20:52:37.459Z,9.67
2017-12-06T20:55:05.843Z,9.03
2017-12-06T20:57:34.323Z,9.37
2017-12-06T21:00:02.722Z,9.50
2017-12-06T21:02:31.050Z,9.80
2017-12-06T21:04:59.543Z,10.17
2017-12-06T21:07:27.893Z,9.27
2017-12-06T21:09:56.506Z,9.63
2017-12-06T21:12:24.919Z,9.73
2017-12-06T21:14:53.289Z,10.10
2017-12-06T21:17:21.586Z,9.30
2017-12-06T21:19:50.708Z,8.77
2017-12-06T21:22:19.076Z,8.97
2017-12-06T21:24:48.194Z,9.13
2017-12-06T21:27:16.540Z,8.60
2017-12-06T21:29:44.921Z,8.17
2017-12-06T21:32:13.275Z,9.00
2017-12-06T21:34:41.647Z,7.90
2017-12-06T21:37:10.085Z,8.70
2017-12-06T21:39:38.589Z,8.33
2017-12-06T21:42:06.939Z,8.73
2017-12-06T21:44:36.045Z,7.90
2017-12-06T21:47:04.375Z,8.00
2017-12-06T21:49:33.638Z,8.03
2017-12-06T21:52:01.956Z,7.27
2017-12-06T21:54:30.481Z,7.23
2017-12-06T21:56:58.837Z,7.30
2017-12-06T21:59:27.931Z,7.33
2017-12-06T22:01:57.088Z,7.20
2017-12-06T22:04:25.416Z,6.73
2017-12-06T22:06:54.525Z,6.60
2017-12-06T22:09:22.862Z,6.23
2017-12-06T22:11:51.201Z,6.53
2017-12-06T22:14:19.628Z,6.00
2017-12-06T22:16:48.064Z,6.37
2017-12-06T22:19:16.437Z,5.43
2017-12-06T22:21:44.778Z,6.10
2017-12-06T22:24:13.913Z,5.43
2017-12-06T22:26:42.264Z,6.30
2017-12-06T22:29:10.667Z,5.87
2017-12-06T22:31:39.009Z,6.33
2017-12-06T22:34:08.116Z,5.70
2017-12-06T22:36:36.448Z,6.13
2017-12-06T22:39:04.779Z,5.87
2017-12-06T22:41:33.140Z,6.50
2017-12-06T22:44:01.604Z,5.90
2017-12-06T22:46:29.932Z,6.07
2017-12-06T22:48:58.255Z,5.53
2017-12-06T22:51:26.630Z,5.67
2017-12-06T22:53:54.982Z,5.80
2017-12-06T22:56:23.380Z,5.60
2017-12-06T22:58:51.721Z,6.03
2017-12-06T23:01:20.122Z,5.67
2017-12-06T23:03:48.510Z,6.33
2017-12-06T23:06:16.829Z,6.27
2017-12-06T23:08:46.060Z,5.97
2017-12-06T23:11:14.476Z,6.20
2017-12-06T23:13:42.856Z,5.97
2017-12-06T23:16:11.236Z,5.83
2017-12-06T23:18:39.567Z,5.53
2017-12-06T23:21:07.969Z,5.90
2017-12-06T23:23:36.356Z,5.57
2017-12-06T23:26:04.769Z,6.20
2017-12-06T23:28:33.130Z,5.70
2017-12-06T23:31:01.510Z,6.40
2017-12-06T23:33:29.862Z,6.53
2017-12-06T23:35:58.207Z,6.63
2017-12-06T23:38:27.356Z,5.63
2017-12-06T23:40:55.831Z,5.90
2017-12-06T23:43:24.207Z,6.13
2017-12-06T23:45:52.576Z,6.03
2017-12-06T23:48:20.974Z,5.90
2017-12-06T23:50:49.701Z,6.47
2017-12-06T23:53:18.128Z,5.97
2017-12-06T23:55:46.641Z,5.77
2017-12-06T23:58:15.020Z,5.47
